Time;durP1;ratioP1;P1;durP2;ratioP2;P2;SDS_P1;SDS_P2;PMS_P1;PMS_P2;Temp;Humidity;BMP_temperature;BMP_pressure;BME280_temperature;BME280_humidity;BME280_pressure;Samples;Min_cycle;Max_cycle;Signal;HPM_P1;HPM_P2
2022/03/15 00:01:17;;;;;;;1.55;0.85;;;;;;;-148.93;100.00;62180.91;20832285;28;20051;-79
2022/03/15 00:11:19;;;;;;;1.42;0.88;;;;;;;-148.93;100.00;62180.91;20831411;28;20073;-78
2022/03/15 00:21:21;;;;;;;1.38;0.93;;;;;;;-148.93;100.00;62180.91;20815380;28;20060;-78
2022/03/15 00:31:23;;;;;;;1.73;0.88;;;;;;;-148.93;100.00;62180.91;20815287;28;20052;-78
2022/03/15 00:41:25;;;;;;;1.92;1.13;;;;;;;-148.93;100.00;62180.91;20786642;28;20064;-78
2022/03/15 00:51:28;;;;;;;2.38;0.90;;;;;;;-148.93;100.00;62180.91;20813611;28;20125;-79
2022/03/15 01:01:31;;;;;;;1.40;0.93;;;;;;;-148.93;100.00;62180.91;20812768;28;20569;-79
2022/03/15 01:11:33;;;;;;;1.42;0.90;;;;;;;-148.93;100.00;62180.91;20778615;28;20057;-79
2022/03/15 01:21:37;;;;;;;1.60;1.00;;;;;;;-148.93;100.00;62180.91;20808412;28;20081;-79
2022/03/15 01:31:39;;;;;;;1.15;0.75;;;;;;;-148.93;100.00;62180.91;20807047;28;20053;-79
2022/03/15 01:41:44;;;;;;;2.22;1.10;;;;;;;-148.93;100.00;62180.91;20784752;28;20556;-78
2022/03/15 01:51:46;;;;;;;0.82;0.73;;;;;;;-148.93;100.00;62180.91;20802001;28;20057;-78
2022/03/15 02:01:48;;;;;;;1.35;0.90;;;;;;;-148.93;100.00;62180.91;20785558;28;20046;-78
2022/03/15 02:11:50;;;;;;;1.25;0.93;;;;;;;-148.93;100.00;62180.91;20818497;28;20052;-78
2022/03/15 02:21:52;;;;;;;2.28;0.80;;;;;;;-148.93;100.00;62180.91;20810101;28;20041;-79
2022/03/15 02:31:54;;;;;;;1.10;0.68;;;;;;;-148.93;100.00;62180.91;20769979;28;20092;-78
2022/03/15 02:41:59;;;;;;;1.27;0.70;;;;;;;-148.93;100.00;62180.91;20723281;28;20133;-79
2022/03/15 02:52:01;;;;;;;1.58;0.77;;;;;;;-148.93;100.00;62180.91;20734407;28;20132;-79
2022/03/15 03:02:04;;;;;;;1.08;0.70;;;;;;;-148.93;100.00;62180.91;20711032;28;20051;-79
2022/03/15 03:12:07;;;;;;;2.65;0.88;;;;;;;-148.93;100.00;62180.91;20747557;28;20042;-79
2022/03/15 03:22:11;;;;;;;1.42;0.73;;;;;;;-148.93;100.00;62180.91;20760810;28;20084;-78
2022/03/15 03:32:13;;;;;;;1.73;0.80;;;;;;;-148.93;100.00;62180.91;20766194;28;20046;-78
2022/03/15 03:42:15;;;;;;;1.30;0.80;;;;;;;-148.93;100.00;62180.91;20752623;28;20065;-78
2022/03/15 03:52:19;;;;;;;1.05;0.90;;;;;;;-148.93;100.00;62180.91;20753181;28;20531;-78
2022/03/15 04:02:21;;;;;;;1.02;0.80;;;;;;;-148.93;100.00;62180.91;20751978;28;20479;-78
2022/03/15 04:12:23;;;;;;;1.13;0.50;;;;;;;-148.93;100.00;62180.91;20744906;28;20052;-79
2022/03/15 04:22:26;;;;;;;1.27;0.57;;;;;;;-148.93;100.00;62180.91;20753307;28;20545;-78
2022/03/15 04:32:28;;;;;;;1.00;0.90;;;;;;;-148.93;100.00;62180.91;20732539;28;20140;-78
2022/03/15 04:42:30;;;;;;;0.82;0.70;;;;;;;-148.93;100.00;62180.91;20782104;28;20129;-78
2022/03/15 04:52:34;;;;;;;1.33;1.10;;;;;;;-148.93;100.00;62180.91;20829617;28;20053;-80
2022/03/15 05:02:37;;;;;;;0.70;0.70;;;;;;;-148.93;100.00;62180.91;20812245;28;20056;-78
2022/03/15 05:12:39;;;;;;;1.30;0.77;;;;;;;-148.93;100.00;62180.91;20795099;28;20446;-79
2022/03/15 05:22:42;;;;;;;0.80;0.80;;;;;;;-148.93;100.00;62180.91;20837350;28;20498;-79
2022/03/15 05:32:44;;;;;;;2.10;1.10;;;;;;;-148.93;100.00;62180.91;20820586;28;20140;-79
2022/03/15 05:42:46;;;;;;;2.05;1.20;;;;;;;-148.93;100.00;62180.91;20826503;28;20058;-78
2022/03/15 05:52:48;;;;;;;1.70;0.93;;;;;;;-148.93;100.00;62180.91;20791225;28;20511;-78
2022/03/15 06:02:51;;;;;;;1.50;0.82;;;;;;;-148.93;100.00;62180.91;20788194;28;20045;-78
2022/03/15 06:12:53;;;;;;;1.73;0.70;;;;;;;-148.93;100.00;62180.91;20821147;28;20050;-79
2022/03/15 06:22:55;;;;;;;1.17;0.80;;;;;;;-148.93;100.00;62180.91;20797620;28;20053;-79
2022/03/15 06:32:59;;;;;;;1.42;1.02;;;;;;;-148.93;100.00;62180.91;20823409;28;20053;-80
2022/03/15 06:43:03;;;;;;;0.90;0.77;;;;;;;-148.93;100.00;62180.91;20735755;28;20050;-79
2022/03/15 06:53:04;;;;;;;0.98;0.80;;;;;;;-148.93;100.00;62180.91;20739990;28;20042;-79
2022/03/15 07:03:06;;;;;;;1.20;1.00;;;;;;;-148.93;100.00;62180.91;20740548;28;20046;-79
2022/03/15 07:13:08;;;;;;;1.33;1.13;;;;;;;-148.93;100.00;62180.91;20747681;28;20100;-81
2022/03/15 07:23:10;;;;;;;1.20;1.08;;;;;;;-148.93;100.00;62180.91;20755237;28;20061;-81
2022/03/15 07:33:12;;;;;;;1.95;1.20;;;;;;;-148.93;100.00;62180.91;20754266;28;20052;-81
2022/03/15 07:43:14;;;;;;;2.53;1.45;;;;;;;-148.93;100.00;62180.91;20753848;28;20077;-80
2022/03/15 07:53:16;;;;;;;2.10;1.48;;;;;;;-148.93;100.00;62180.91;20753573;28;20064;-81
2022/03/15 08:03:18;;;;;;;3.17;1.30;;;;;;;-148.93;100.00;62180.91;20735883;28;20038;-82
2022/03/15 08:13:20;;;;;;;3.22;1.70;;;;;;;-148.93;100.00;62180.91;20735431;28;20117;-81
2022/03/15 08:23:23;;;;;;;1.95;1.40;;;;;;;-148.93;100.00;62180.91;20750454;28;20499;-80
2022/03/15 08:33:24;;;;;;;3.20;1.73;;;;;;;-148.93;100.00;62180.91;20749693;28;20053;-80
2022/03/15 08:43:26;;;;;;;2.72;1.98;;;;;;;-148.93;100.00;62180.91;20748786;28;20141;-80
2022/03/15 08:53:29;;;;;;;2.28;1.60;;;;;;;-148.93;100.00;62180.91;20822791;28;20060;-79
2022/03/15 09:03:31;;;;;;;2.50;1.60;;;;;;;-148.93;100.00;62180.91;20812339;28;20049;-79
2022/03/15 09:13:33;;;;;;;2.10;1.67;;;;;;;-148.93;100.00;62180.91;20829661;28;20119;-79
2022/03/15 09:23:35;;;;;;;1.98;1.60;;;;;;;-148.93;100.00;62180.91;20828782;28;20063;-79
2022/03/15 09:33:37;;;;;;;2.53;1.75;;;;;;;-148.93;100.00;62180.91;20827988;28;20041;-79
2022/03/15 09:43:41;;;;;;;1.75;1.65;;;;;;;-148.93;100.00;62180.91;20808889;28;20048;-79
2022/03/15 09:53:43;;;;;;;2.15;1.58;;;;;;;-148.93;100.00;62180.91;20826491;28;20415;-79
2022/03/15 10:03:48;;;;;;;;;;;;;;;-148.93;100.00;62180.91;20808531;28;20041;-79
2022/03/15 10:13:51;;;;;;;1.90;1.52;;;;;;;-148.93;100.00;62180.91;20807416;28;20414;-79
2022/03/15 10:23:57;;;;;;;3.03;1.70;;;;;;;-148.93;100.00;62180.91;20824240;28;20111;-79
2022/03/15 10:34:01;;;;;;;2.42;1.70;;;;;;;-148.93;100.00;62180.91;20807046;28;20461;-79
2022/03/15 10:44:14;;;;;;;2.10;1.40;;;;;;;-148.93;100.00;62180.91;20803277;28;20045;-79
2022/03/15 10:54:16;;;;;;;2.03;1.38;;;;;;;-148.93;100.00;62180.91;20744542;28;20316;-79
2022/03/15 11:04:18;;;;;;;1.58;1.10;;;;;;;-148.93;100.00;62180.91;20741592;28;20385;-79
2022/03/15 11:14:36;;;;;;;1.23;1.13;;;;;;;-148.93;100.00;62180.91;20723007;28;20054;-79
2022/03/15 11:24:42;;;;;;;1.98;1.40;;;;;;;-148.93;100.00;62180.91;20782243;28;20046;-79
2022/03/15 11:34:44;;;;;;;1.45;1.20;;;;;;;-148.93;100.00;62180.91;20804016;28;20048;-80
2022/03/15 11:44:45;;;;;;;1.60;1.30;;;;;;;-148.93;100.00;62180.91;20821182;28;20056;-80
2022/03/15 11:55:07;;;;;;;0.85;0.85;;;;;;;-148.93;100.00;62180.91;20825841;28;20407;-80
2022/03/15 12:05:18;;;;;;;1.75;1.20;;;;;;;-148.93;100.00;62180.91;20835248;28;20502;-79
2022/03/15 12:15:22;;;;;;;1.80;1.08;;;;;;;-148.93;100.00;62180.91;20817232;28;20065;-79
2022/03/15 12:25:34;;;;;;;;;;;;;;;-148.93;100.00;62180.91;20833593;28;20057;-79
2022/03/15 12:35:36;;;;;;;2.08;1.15;;;;;;;-148.93;100.00;62180.91;20815464;28;19925;-79
2022/03/15 12:45:45;;;;;;;1.92;0.93;;;;;;;-148.93;100.00;62180.91;20831712;28;20131;-79
2022/03/15 12:55:47;;;;;;;1.42;0.93;;;;;;;-148.93;100.00;62180.91;20813954;28;20077;-79
2022/03/15 13:05:51;;;;;;;2.78;1.23;;;;;;;-148.93;100.00;62180.91;20812640;28;20045;-79
2022/03/15 13:16:08;;;;;;;1.55;1.08;;;;;;;-148.93;100.00;62180.91;20830412;28;20053;-79
2022/03/15 13:26:12;;;;;;;1.20;1.02;;;;;;;-148.93;100.00;62180.91;20831660;28;20057;-79
2022/03/15 13:36:19;;;;;;;1.33;0.90;;;;;;;-148.93;100.00;62180.91;20811412;28;20475;-79
2022/03/15 13:46:21;;;;;;;1.73;1.10;;;;;;;-148.93;100.00;62180.91;20826946;28;20407;-79
2022/03/15 13:56:23;;;;;;;1.77;1.10;;;;;;;-148.93;100.00;62180.91;20808799;28;20371;-79
2022/03/15 14:06:32;;;;;;;1.80;1.00;;;;;;;-148.93;100.00;62180.91;20822444;28;20048;-80
2022/03/15 14:16:41;;;;;;;1.40;1.10;;;;;;;-148.93;100.00;62180.91;20825081;28;20054;-80
2022/03/15 14:26:56;;;;;;;1.63;1.52;;;;;;;-148.93;100.00;62180.91;20790400;28;20052;-80
2022/03/15 14:37:07;;;;;;;1.60;1.03;;;;;;;-148.93;100.00;62180.91;20807190;28;20164;-80
2022/03/15 14:47:15;;;;;;;1.67;1.10;;;;;;;-148.93;100.00;62180.91;20806680;28;20045;-80
2022/03/15 14:57:22;;;;;;;1.40;1.10;;;;;;;-148.93;100.00;62180.91;20809078;28;20041;-80
2022/03/15 15:07:24;;;;;;;1.00;0.90;;;;;;;-148.93;100.00;62180.91;20835367;28;20052;-80
2022/03/15 15:17:32;;;;;;;1.30;1.00;;;;;;;-148.93;100.00;62180.91;20904408;28;20475;-80
2022/03/15 15:27:43;;;;;;;1.13;1.00;;;;;;;-148.93;100.00;62180.91;20869937;28;20057;-80
2022/03/15 15:37:49;;;;;;;1.42;1.10;;;;;;;-148.93;100.00;62180.91;20884132;28;20053;-80
2022/03/15 15:47:53;;;;;;;1.27;1.10;;;;;;;-148.93;100.00;62180.91;20918912;28;20091;-80
2022/03/15 15:57:59;;;;;;;1.80;1.07;;;;;;;-148.93;100.00;62180.91;20901089;28;20053;-80
2022/03/15 16:08:02;;;;;;;0.90;0.90;;;;;;;-148.93;100.00;62180.91;20883470;28;20486;-80
2022/03/15 16:18:06;;;;;;;1.88;1.00;;;;;;;-148.93;100.00;62180.91;20899390;28;20143;-80
2022/03/15 16:28:08;;;;;;;2.15;1.38;;;;;;;-148.93;100.00;62180.91;20898148;28;20159;-80
2022/03/15 16:38:10;;;;;;;1.60;1.00;;;;;;;-148.93;100.00;62180.91;20897398;28;20052;-80
2022/03/15 16:48:12;;;;;;;1.25;1.13;;;;;;;-148.93;100.00;62180.91;20896124;28;20049;-80
2022/03/15 17:08:42;;;;;;;1.20;1.10;;;;;;;-148.93;100.00;62180.91;20897780;28;20380;-80
2022/03/15 17:18:48;;;;;;;3.40;1.33;;;;;;;-148.93;100.00;62180.91;20894405;28;20099;-80
2022/03/15 17:28:51;;;;;;;1.40;1.05;;;;;;;-148.93;100.00;62180.91;20910985;28;20479;-80
2022/03/15 17:38:53;;;;;;;3.17;1.23;;;;;;;-148.93;100.00;62180.91;20892889;28;20506;-80
2022/03/15 17:49:12;;;;;;;1.90;1.52;;;;;;;-148.93;100.00;62180.91;20909862;28;20055;-80
2022/03/15 17:59:20;;;;;;;2.60;1.65;;;;;;;-148.93;100.00;62180.91;20909913;28;20535;-79
2022/03/15 18:09:22;;;;;;;1.65;1.50;;;;;;;-148.93;100.00;62180.91;20907944;28;20045;-79
2022/03/15 18:19:24;;;;;;;2.28;1.63;;;;;;;-148.93;100.00;62180.91;20907188;28;20060;-79
2022/03/15 18:29:28;;;;;;;1.80;1.58;;;;;;;-148.93;100.00;62180.91;20906786;28;20057;-80
2022/03/15 18:39:32;;;;;;;2.53;1.40;;;;;;;-148.93;100.00;62180.91;20905197;28;20047;-78
2022/03/15 18:49:36;;;;;;;2.08;1.40;;;;;;;-148.93;100.00;62180.91;20905398;28;20501;-79
2022/03/15 18:59:37;;;;;;;2.28;1.98;;;;;;;-148.93;100.00;62180.91;20887276;28;20059;-78
2022/03/15 19:09:39;;;;;;;1.92;1.40;;;;;;;-148.93;100.00;62180.91;20845704;28;20053;-79
2022/03/15 19:19:42;;;;;;;3.75;2.08;;;;;;;-148.93;100.00;62180.91;20837250;28;20064;-79
2022/03/15 19:29:44;;;;;;;2.42;2.03;;;;;;;-148.93;100.00;62180.91;20818797;28;20052;-79
2022/03/15 19:39:46;;;;;;;3.22;1.80;;;;;;;-148.93;100.00;62180.91;20835421;28;20411;-78
2022/03/15 19:49:47;;;;;;;2.40;1.95;;;;;;;-148.93;100.00;62180.91;20818302;28;20160;-79
2022/03/15 19:59:49;;;;;;;2.70;1.90;;;;;;;-148.93;100.00;62180.91;20817409;28;20046;-79
2022/03/15 20:09:51;;;;;;;3.17;2.30;;;;;;;-148.93;100.00;62180.91;20824078;28;20583;-79
2022/03/15 20:19:53;;;;;;;2.22;1.67;;;;;;;-148.93;100.00;62180.91;20799772;28;20055;-78
2022/03/15 20:29:57;;;;;;;3.63;1.63;;;;;;;-148.93;100.00;62180.91;20833596;28;20056;-78
2022/03/15 20:40:00;;;;;;;4.32;2.10;;;;;;;-148.93;100.00;62180.91;20815855;28;20641;-78
2022/03/15 20:50:02;;;;;;;2.63;2.00;;;;;;;-148.93;100.00;62180.91;20831845;28;20038;-78
2022/03/15 21:00:08;;;;;;;2.67;2.40;;;;;;;-148.93;100.00;62180.91;20797470;28;20049;-78
2022/03/15 21:10:09;;;;;;;2.30;1.93;;;;;;;-148.93;100.00;62180.91;20830454;28;20145;-78
2022/03/15 21:20:11;;;;;;;3.30;2.20;;;;;;;-148.93;100.00;62180.91;20825266;28;20073;-78
2022/03/15 21:30:13;;;;;;;3.85;2.35;;;;;;;-148.93;100.00;62180.91;20829221;28;20052;-78
2022/03/15 21:40:16;;;;;;;3.05;2.22;;;;;;;-148.93;100.00;62180.91;20826223;28;20423;-78
2022/03/15 21:50:18;;;;;;;3.15;2.40;;;;;;;-148.93;100.00;62180.91;20808974;28;20045;-79
2022/03/15 22:00:20;;;;;;;3.22;2.63;;;;;;;-148.93;100.00;62180.91;20778531;28;20406;-78
2022/03/15 22:10:24;;;;;;;3.10;2.20;;;;;;;-148.93;100.00;62180.91;20789317;28;20107;-78
2022/03/15 22:20:27;;;;;;;4.00;2.20;;;;;;;-148.93;100.00;62180.91;20823831;28;20057;-79
2022/03/15 23:32:37;;;;;;;2.70;2.22;;;;;;;-148.93;100.00;62180.91;20806232;28;20510;-78
2022/03/15 23:42:39;;;;;;;4.15;2.50;;;;;;;-148.93;100.00;62180.91;20813924;28;20501;-79
2022/03/15 23:52:46;;;;;;;2.80;2.10;;;;;;;-148.93;100.00;62180.91;20741394;28;20084;-78
